createdAt,value
2022-12-10T17:12:56.975Z,49.66
2022-12-10T17:15:27.422Z,48.84
2022-12-10T17:17:57.224Z,48.47
2022-12-10T17:20:27.675Z,47.26
2022-12-10T17:22:57.457Z,46.62
2022-12-10T17:25:26.942Z,46.09
2022-12-10T17:27:56.944Z,45.59
2022-12-10T18:08:25.614Z,37.66
2022-12-10T18:10:56.039Z,37.84
2022-12-10T18:13:25.985Z,37.71
2022-12-10T18:15:56.366Z,37.91
2022-12-10T18:18:26.186Z,38.53
2022-12-10T18:20:55.800Z,38.82
2022-12-10T18:23:26.125Z,39.16
2022-12-10T18:29:41.636Z,39.60
2022-12-10T18:32:12.913Z,39.71
2022-12-10T18:34:41.282Z,40.01
2022-12-10T18:37:11.739Z,40.06
2022-12-10T18:39:40.105Z,40.08
2022-12-10T18:42:08.268Z,40.33
2022-12-10T18:44:36.401Z,40.43
2022-12-10T18:47:06.436Z,40.47
2022-12-10T18:49:34.535Z,40.45
2022-12-10T18:52:02.617Z,40.65
2022-12-10T18:54:30.876Z,40.81
2022-12-10T18:57:31.647Z,40.69
2022-12-10T18:59:47.088Z,40.89
2022-12-10T19:02:15.375Z,40.91
2022-12-10T19:04:43.455Z,40.88
2022-12-10T19:07:13.390Z,41.32
2022-12-10T19:09:42.758Z,41.66
2022-12-10T19:12:11.234Z,41.76
2022-12-10T19:14:39.513Z,41.76
2022-12-10T19:17:11.478Z,42.75
2022-12-10T19:19:39.753Z,42.24
2022-12-10T19:22:07.865Z,41.52
2022-12-10T19:24:36.109Z,41.38
2022-12-10T19:27:04.641Z,41.35
2022-12-10T19:29:32.860Z,41.44
2022-12-10T19:32:01.238Z,41.45
2022-12-10T19:34:29.723Z,41.31
2022-12-10T19:36:57.798Z,41.25
2022-12-10T19:39:26.947Z,41.30
2022-12-10T19:41:58.615Z,41.34
2022-12-10T19:44:26.715Z,41.31
2022-12-10T19:46:54.785Z,41.28
2022-12-10T19:49:22.967Z,41.30
2022-12-10T19:51:51.346Z,41.21
2022-12-10T19:54:19.601Z,41.14
2022-12-10T19:56:47.903Z,41.11
2022-12-10T19:59:19.757Z,41.10
2022-12-10T20:01:48.574Z,41.12
2022-12-10T20:04:18.796Z,41.17
2022-12-10T20:06:49.129Z,41.19
2022-12-10T20:09:29.807Z,41.08
2022-12-10T20:11:58.091Z,40.99
2022-12-10T20:14:26.616Z,41.07
2022-12-10T20:16:54.867Z,41.07
2022-12-10T20:19:25.024Z,41.03
2022-12-10T20:21:53.369Z,40.98
2022-12-10T20:24:22.461Z,40.99
2022-12-10T20:26:51.097Z,40.94
2022-12-10T20:29:25.956Z,40.98
2022-12-10T20:31:57.055Z,40.87
2022-12-10T20:34:26.520Z,40.95
2022-12-10T20:36:54.725Z,40.92
2022-12-10T20:39:33.240Z,40.81
2022-12-10T20:42:02.371Z,40.86
2022-12-10T20:44:30.718Z,40.75
2022-12-10T20:46:58.787Z,40.73
2022-12-10T20:49:28.172Z,40.89
2022-12-10T20:51:56.413Z,40.62
2022-12-10T20:54:24.746Z,40.54
2022-12-10T20:56:59.274Z,40.68
2022-12-10T20:59:31.440Z,40.60
2022-12-10T21:01:59.533Z,40.56
2022-12-10T21:04:28.616Z,40.60
2022-12-10T21:06:56.883Z,40.49
2022-12-10T21:09:25.106Z,40.40
2022-12-10T21:11:53.329Z,40.54
2022-12-10T21:14:54.284Z,40.27
2022-12-10T21:17:12.824Z,40.34
2022-12-10T21:19:42.497Z,40.42
2022-12-10T21:22:13.776Z,40.45
2022-12-10T21:24:41.914Z,40.41
2022-12-10T21:27:10.644Z,40.30
2022-12-10T21:29:39.016Z,40.42
2022-12-10T21:32:07.393Z,40.43
2022-12-10T21:34:35.566Z,40.47
2022-12-10T21:37:03.744Z,40.28
2022-12-10T21:39:31.917Z,40.29
2022-12-10T21:42:18.657Z,40.34
2022-12-10T21:44:46.905Z,40.19
2022-12-10T21:47:15.076Z,40.46
2022-12-10T21:49:43.247Z,40.43
2022-12-10T21:52:12.552Z,40.52
2022-12-10T21:54:40.820Z,40.25
2022-12-10T21:57:09.001Z,40.35
2022-12-10T21:59:37.280Z,40.49
2022-12-10T22:02:05.380Z,40.54
2022-12-10T22:04:33.968Z,40.39
2022-12-10T22:07:02.107Z,40.32
2022-12-10T22:09:30.119Z,40.59
2022-12-10T22:11:58.352Z,40.53
2022-12-10T22:14:26.498Z,40.53
2022-12-10T22:16:54.700Z,40.57
2022-12-10T22:19:23.077Z,40.52
2022-12-10T22:21:51.192Z,40.64
2022-12-10T22:24:19.223Z,40.57
2022-12-10T22:26:47.397Z,40.58
2022-12-10T22:29:15.779Z,40.58
2022-12-10T22:31:44.307Z,40.64
2022-12-10T22:34:12.535Z,40.79
2022-12-10T22:36:41.122Z,40.75
2022-12-10T22:39:10.320Z,40.57
2022-12-10T22:41:38.593Z,40.72
2022-12-10T22:44:07.796Z,40.72
2022-12-10T22:46:36.009Z,40.70
2022-12-10T22:49:04.215Z,40.58
2022-12-10T22:51:32.316Z,40.68
2022-12-10T22:54:01.309Z,40.49
2022-12-10T22:56:30.679Z,40.38
2022-12-10T22:58:59.127Z,40.52
2022-12-10T23:01:28.101Z,40.64
2022-12-10T23:03:56.976Z,40.55
2022-12-10T23:06:26.486Z,40.70
2022-12-10T23:08:54.593Z,40.66
2022-12-10T23:11:22.829Z,40.62
2022-12-10T23:13:51.210Z,40.66
2022-12-10T23:16:19.957Z,40.74
2022-12-10T23:18:51.241Z,40.79
2022-12-10T23:21:26.686Z,40.69
2022-12-10T23:23:55.268Z,40.76
2022-12-10T23:26:23.444Z,40.75
2022-12-10T23:28:51.508Z,40.69
2022-12-10T23:31:20.067Z,40.83
2022-12-10T23:33:48.377Z,40.69
2022-12-10T23:36:16.652Z,40.82
2022-12-10T23:38:44.804Z,40.85
2022-12-10T23:41:13.104Z,41.05
2022-12-10T23:43:41.584Z,41.02
2022-12-10T23:46:09.930Z,40.96
2022-12-10T23:48:38.375Z,40.86
2022-12-10T23:51:07.203Z,40.85
2022-12-10T23:53:35.406Z,40.94
2022-12-10T23:56:14.132Z,40.90
2022-12-10T23:58:43.026Z,41.01
